sensor_id;sensor_type;location;lat;lon;timestamp;pressure;altitude;pressure_sealevel;temperature;humidity
53270;BME280;39159;45.634;9.420;2023-09-18T00:01:46;99099.13;;;21.51;100.00
53270;BME280;39159;45.634;9.420;2023-09-18T00:04:11;99086.75;;;21.45;100.00
53270;BME280;39159;45.634;9.420;2023-09-18T00:06:37;99085.97;;;21.45;100.00
53270;BME280;39159;45.634;9.420;2023-09-18T00:09:02;99086.72;;;21.42;100.00
53270;BME280;39159;45.634;9.420;2023-09-18T00:11:28;99088.31;;;21.43;100.00
53270;BME280;39159;45.634;9.420;2023-09-18T00:13:53;99072.50;;;21.47;100.00
53270;BME280;39159;45.634;9.420;2023-09-18T00:16:18;99059.41;;;21.47;100.00
53270;BME280;39159;45.634;9.420;2023-09-18T00:18:44;99039.16;;;21.43;100.00
53270;BME280;39159;45.634;9.420;2023-09-18T00:21:10;99039.88;;;21.40;100.00
53270;BME280;39159;45.634;9.420;2023-09-18T00:23:38;99039.84;;;21.37;100.00
53270;BME280;39159;45.634;9.420;2023-09-18T00:26:04;99037.78;;;21.30;100.00
53270;BME280;39159;45.634;9.420;2023-09-18T00:28:29;99052.81;;;21.29;100.00
53270;BME280;39159;45.634;9.420;2023-09-18T00:30:55;99039.75;;;21.29;100.00
53270;BME280;39159;45.634;9.420;2023-09-18T00:33:20;99035.72;;;21.23;100.00
53270;BME280;39159;45.634;9.420;2023-09-18T00:35:49;99033.31;;;21.22;100.00
53270;BME280;39159;45.634;9.420;2023-09-18T00:38:16;99028.97;;;21.24;100.00
53270;BME280;39159;45.634;9.420;2023-09-18T00:40:41;99018.31;;;21.26;100.00
53270;BME280;39159;45.634;9.420;2023-09-18T00:43:07;99013.09;;;21.21;100.00
53270;BME280;39159;45.634;9.420;2023-09-18T00:45:38;99006.34;;;21.22;100.00
53270;BME280;39159;45.634;9.420;2023-09-18T00:48:05;99007.84;;;21.16;100.00
53270;BME280;39159;45.634;9.420;2023-09-18T00:50:30;98998.38;;;21.17;100.00
53270;BME280;39159;45.634;9.420;2023-09-18T00:52:56;98995.16;;;21.15;100.00
53270;BME280;39159;45.634;9.420;2023-09-18T00:55:21;99002.72;;;21.18;100.00
53270;BME280;39159;45.634;9.420;2023-09-18T00:57:47;99002.78;;;21.22;100.00
53270;BME280;39159;45.634;9.420;2023-09-18T01:00:13;99004.75;;;21.21;100.00
53270;BME280;39159;45.634;9.420;2023-09-18T01:02:43;99002.00;;;21.21;100.00
53270;BME280;39159;45.634;9.420;2023-09-18T01:05:10;99000.81;;;21.22;100.00
53270;BME280;39159;45.634;9.420;2023-09-18T01:07:36;99006.41;;;21.26;100.00
53270;BME280;39159;45.634;9.420;2023-09-18T01:10:01;99013.53;;;21.27;100.00
53270;BME280;39159;45.634;9.420;2023-09-18T01:17:35;99008.50;;;21.36;100.00
53270;BME280;39159;45.634;9.420;2023-09-18T01:20:08;99006.13;;;21.35;100.00
53270;BME280;39159;45.634;9.420;2023-09-18T01:22:34;99006.13;;;21.35;100.00
53270;BME280;39159;45.634;9.420;2023-09-18T01:24:59;99007.69;;;21.36;100.00
53270;BME280;39159;45.634;9.420;2023-09-18T01:27:24;98986.69;;;21.35;100.00
53270;BME280;39159;45.634;9.420;2023-09-18T01:29:50;98991.00;;;21.32;100.00
53270;BME280;39159;45.634;9.420;2023-09-18T01:32:16;98991.31;;;21.23;100.00
53270;BME280;39159;45.634;9.420;2023-09-18T01:34:53;98981.72;;;21.17;100.00
53270;BME280;39159;45.634;9.420;2023-09-18T01:37:20;98988.00;;;21.14;100.00
53270;BME280;39159;45.634;9.420;2023-09-18T01:39:49;98987.94;;;21.07;100.00
53270;BME280;39159;45.634;9.420;2023-09-18T01:42:15;99003.88;;;21.14;100.00
53270;BME280;39159;45.634;9.420;2023-09-18T01:44:41;99003.91;;;21.17;100.00
53270;BME280;39159;45.634;9.420;2023-09-18T01:47:08;99003.56;;;21.22;100.00
53270;BME280;39159;45.634;9.420;2023-09-18T01:49:39;98996.88;;;21.23;100.00
53270;BME280;39159;45.634;9.420;2023-09-18T01:52:06;98990.47;;;21.19;100.00
53270;BME280;39159;45.634;9.420;2023-09-18T01:54:32;98990.84;;;21.18;100.00
53270;BME280;39159;45.634;9.420;2023-09-18T01:56:58;98974.13;;;21.14;100.00
53270;BME280;39159;45.634;9.420;2023-09-18T01:59:24;98950.72;;;21.11;100.00
53270;BME280;39159;45.634;9.420;2023-09-18T02:01:51;98939.53;;;21.04;100.00
53270;BME280;39159;45.634;9.420;2023-09-18T02:04:17;98933.19;;;21.04;100.00
53270;BME280;39159;45.634;9.420;2023-09-18T02:06:43;98927.22;;;21.02;100.00
53270;BME280;39159;45.634;9.420;2023-09-18T02:09:09;98938.28;;;20.98;100.00
53270;BME280;39159;45.634;9.420;2023-09-18T02:11:39;98951.00;;;21.03;100.00
53270;BME280;39159;45.634;9.420;2023-09-18T02:14:04;98946.22;;;21.00;100.00
53270;BME280;39159;45.634;9.420;2023-09-18T02:16:34;98945.38;;;20.96;100.00
53270;BME280;39159;45.634;9.420;2023-09-18T02:19:00;98941.75;;;20.91;100.00
53270;BME280;39159;45.634;9.420;2023-09-18T02:21:25;98941.72;;;20.88;100.00
53270;BME280;39159;45.634;9.420;2023-09-18T02:23:52;98938.47;;;20.82;100.00
53270;BME280;39159;45.634;9.420;2023-09-18T02:26:18;98921.84;;;20.82;100.00
53270;BME280;39159;45.634;9.420;2023-09-18T02:28:43;98914.66;;;20.78;100.00
53270;BME280;39159;45.634;9.420;2023-09-18T02:31:09;98905.97;;;20.79;100.00
53270;BME280;39159;45.634;9.420;2023-09-18T02:33:34;98917.06;;;20.83;100.00
53270;BME280;39159;45.634;9.420;2023-09-18T02:36:00;98927.00;;;20.84;100.00
53270;BME280;39159;45.634;9.420;2023-09-18T02:38:26;98924.25;;;20.84;100.00
53270;BME280;39159;45.634;9.420;2023-09-18T02:40:51;98915.56;;;20.89;100.00
53270;BME280;39159;45.634;9.420;2023-09-18T02:43:18;98900.16;;;20.91;100.00
53270;BME280;39159;45.634;9.420;2023-09-18T02:45:43;98911.72;;;20.97;100.00
53270;BME280;39159;45.634;9.420;2023-09-18T02:48:11;98932.78;;;21.02;100.00
53270;BME280;39159;45.634;9.420;2023-09-18T02:50:36;98920.91;;;21.05;100.00
53270;BME280;39159;45.634;9.420;2023-09-18T02:53:01;98904.69;;;21.07;100.00
53270;BME280;39159;45.634;9.420;2023-09-18T02:55:28;98907.50;;;21.10;100.00
53270;BME280;39159;45.634;9.420;2023-09-18T02:57:54;98918.91;;;21.02;100.00
53270;BME280;39159;45.634;9.420;2023-09-18T03:00:19;98923.59;;;20.98;100.00
53270;BME280;39159;45.634;9.420;2023-09-18T03:02:44;98939.53;;;21.04;100.00
53270;BME280;39159;45.634;9.420;2023-09-18T03:05:10;98928.88;;;21.06;100.00
53270;BME280;39159;45.634;9.420;2023-09-18T03:07:35;98927.72;;;21.11;100.00
53270;BME280;39159;45.634;9.420;2023-09-18T03:10:01;98926.09;;;21.06;100.00
53270;BME280;39159;45.634;9.420;2023-09-18T03:12:27;98930.03;;;21.05;100.00
53270;BME280;39159;45.634;9.420;2023-09-18T03:14:53;98936.41;;;21.06;100.00
53270;BME280;39159;45.634;9.420;2023-09-18T03:17:18;98931.59;;;21.03;100.00
53270;BME280;39159;45.634;9.420;2023-09-18T03:19:48;98936.75;;;21.04;100.00
53270;BME280;39159;45.634;9.420;2023-09-18T03:22:13;98930.84;;;21.06;100.00
53270;BME280;39159;45.634;9.420;2023-09-18T03:24:39;98923.69;;;21.05;100.00
53270;BME280;39159;45.634;9.420;2023-09-18T03:27:04;98929.22;;;21.05;100.00
53270;BME280;39159;45.634;9.420;2023-09-18T03:29:30;98925.63;;;21.01;100.00
53270;BME280;39159;45.634;9.420;2023-09-18T03:31:55;98932.78;;;21.02;100.00
53270;BME280;39159;45.634;9.420;2023-09-18T03:34:23;98936.34;;;21.02;100.00
53270;BME280;39159;45.634;9.420;2023-09-18T03:36:51;98941.91;;;21.02;100.00
53270;BME280;39159;45.634;9.420;2023-09-18T03:39:17;98939.13;;;21.02;100.00
53270;BME280;39159;45.634;9.420;2023-09-18T03:41:42;98949.84;;;21.04;100.00
53270;BME280;39159;45.634;9.420;2023-09-18T03:44:07;98946.34;;;21.10;100.00
53270;BME280;39159;45.634;9.420;2023-09-18T03:46:34;98953.91;;;21.14;100.00
53270;BME280;39159;45.634;9.420;2023-09-18T03:48:59;98938.09;;;21.18;100.00
53270;BME280;39159;45.634;9.420;2023-09-18T03:51:24;98931.75;;;21.17;100.00
53270;BME280;39159;45.634;9.420;2023-09-18T03:53:50;98928.50;;;21.11;100.00
53270;BME280;39159;45.634;9.420;2023-09-18T03:56:16;98930.88;;;21.09;100.00
53270;BME280;39159;45.634;9.420;2023-09-18T03:58:41;98931.63;;;21.06;100.00
53270;BME280;39159;45.634;9.420;2023-09-18T04:01:07;98938.03;;;21.10;100.00
53270;BME280;39159;45.634;9.420;2023-09-18T04:03:33;98931.69;;;21.10;100.00
53270;BME280;39159;45.634;9.420;2023-09-18T04:05:58;98940.41;;;21.12;100.00
53270;BME280;39159;45.634;9.420;2023-09-18T04:08:23;98921.75;;;21.09;100.00
53270;BME280;39159;45.634;9.420;2023-09-18T04:10:49;98929.63;;;21.03;100.00
53270;BME280;39159;45.634;9.420;2023-09-18T04:13:14;98935.63;;;21.09;100.00
53270;BME280;39159;45.634;9.420;2023-09-18T04:15:39;98933.28;;;21.11;100.00
53270;BME280;39159;45.634;9.420;2023-09-18T04:18:05;98938.03;;;21.10;100.00
53270;BME280;39159;45.634;9.420;2023-09-18T04:20:31;98936.41;;;21.06;100.00
53270;BME280;39159;45.634;9.420;2023-09-18T04:23:20;98940.34;;;21.05;100.00
53270;BME280;39159;45.634;9.420;2023-09-18T04:25:46;98929.22;;;21.05;100.00
53270;BME280;39159;45.634;9.420;2023-09-18T04:28:13;98927.22;;;21.02;100.00
53270;BME280;39159;45.634;9.420;2023-09-18T04:30:38;98932.34;;;21.00;100.00
53270;BME280;39159;45.634;9.420;2023-09-18T04:33:04;98920.00;;;20.94;100.00
53270;BME280;39159;45.634;9.420;2023-09-18T04:35:29;98918.81;;;20.95;100.00
53270;BME280;39159;45.634;9.420;2023-09-18T04:37:56;98913.69;;;20.97;100.00
53270;BME280;39159;45.634;9.420;2023-09-18T04:40:22;98922.44;;;20.99;100.00
53270;BME280;39159;45.634;9.420;2023-09-18T04:42:49;98911.34;;;20.99;100.00
53270;BME280;39159;45.634;9.420;2023-09-18T04:45:14;98918.91;;;21.02;100.00
53270;BME280;39159;45.634;9.420;2023-09-18T04:47:41;98916.16;;;21.05;100.00
53270;BME280;39159;45.634;9.420;2023-09-18T04:50:07;98910.16;;;21.00;100.00
53270;BME280;39159;45.634;9.420;2023-09-18T04:52:37;98901.00;;;20.96;100.00
53270;BME280;39159;45.634;9.420;2023-09-18T04:55:03;98897.00;;;20.93;100.00
53270;BME280;39159;45.634;9.420;2023-09-18T04:57:31;98898.22;;;20.96;100.00
53270;BME280;39159;45.634;9.420;2023-09-18T04:59:56;98888.63;;;20.89;100.00
53270;BME280;39159;45.634;9.420;2023-09-18T05:02:21;98880.72;;;20.91;100.00
53270;BME280;39159;45.634;9.420;2023-09-18T05:04:47;98877.88;;;20.84;100.00
53270;BME280;39159;45.634;9.420;2023-09-18T05:07:12;98877.47;;;20.82;100.00
53270;BME280;39159;45.634;9.420;2023-09-18T05:09:38;98878.59;;;20.78;100.00
53270;BME280;39159;45.634;9.420;2023-09-18T05:12:05;98888.56;;;20.82;100.00
53270;BME280;39159;45.634;9.420;2023-09-18T05:14:33;98900.84;;;20.81;100.00
53270;BME280;39159;45.634;9.420;2023-09-18T05:16:59;98901.16;;;20.76;100.00
53270;BME280;39159;45.634;9.420;2023-09-18T05:19:25;98907.09;;;20.75;100.00
53270;BME280;39159;45.634;9.420;2023-09-18T05:21:50;98909.91;;;20.78;100.00
53270;BME280;39159;45.634;9.420;2023-09-18T05:24:16;98910.28;;;20.77;100.00
53270;BME280;39159;45.634;9.420;2023-09-18T05:26:41;98906.28;;;20.74;100.00
53270;BME280;39159;45.634;9.420;2023-09-18T05:29:06;98909.38;;;20.69;100.00
53270;BME280;39159;45.634;9.420;2023-09-18T05:31:32;98910.25;;;20.73;100.00
53270;BME280;39159;45.634;9.420;2023-09-18T05:33:58;98909.16;;;20.81;100.00
53270;BME280;39159;45.634;9.420;2023-09-18T05:36:24;98906.75;;;20.80;100.00
53270;BME280;39159;45.634;9.420;2023-09-18T05:38:49;98913.09;;;20.80;100.00
53270;BME280;39159;45.634;9.420;2023-09-18T05:41:14;98924.66;;;20.86;100.00
53270;BME280;39159;45.634;9.420;2023-09-18T05:43:40;98921.50;;;20.87;100.00
53270;BME280;39159;45.634;9.420;2023-09-18T05:46:06;98915.22;;;20.90;100.00
53270;BME280;39159;45.634;9.420;2023-09-18T05:48:31;98917.63;;;20.96;100.00
53270;BME280;39159;45.634;9.420;2023-09-18T05:50:56;98921.59;;;20.95;100.00
53270;BME280;39159;45.634;9.420;2023-09-18T05:53:22;98934.72;;;20.98;100.00
53270;BME280;39159;45.634;9.420;2023-09-18T05:55:47;98917.28;;;21.01;100.00
53270;BME280;39159;45.634;9.420;2023-09-18T05:58:13;98916.56;;;21.07;100.00
53270;BME280;39159;45.634;9.420;2023-09-18T06:00:39;98915.06;;;21.14;100.00
53270;BME280;39159;45.634;9.420;2023-09-18T06:03:04;98899.97;;;21.11;100.00
53270;BME280;39159;45.634;9.420;2023-09-18T06:05:31;98882.13;;;21.08;100.00
53270;BME280;39159;45.634;9.420;2023-09-18T06:07:56;98864.63;;;21.04;100.00
53270;BME280;39159;45.634;9.420;2023-09-18T06:10:22;98830.91;;;20.99;100.00
53270;BME280;39159;45.634;9.420;2023-09-18T06:12:47;98820.53;;;20.96;100.00
53270;BME280;39159;45.634;9.420;2023-09-18T06:15:13;98808.59;;;20.91;100.00
53270;BME280;39159;45.634;9.420;2023-09-18T06:17:41;98792.69;;;20.85;100.00
53270;BME280;39159;45.634;9.420;2023-09-18T06:20:08;98787.97;;;20.85;100.00
53270;BME280;39159;45.634;9.420;2023-09-18T06:22:38;98796.59;;;20.80;100.00
53270;BME280;39159;45.634;9.420;2023-09-18T06:25:08;98814.09;;;20.84;100.00
53270;BME280;39159;45.634;9.420;2023-09-18T06:27:35;98836.75;;;20.90;100.00
53270;BME280;39159;45.634;9.420;2023-09-18T06:30:02;98842.78;;;20.99;100.00
53270;BME280;39159;45.634;9.420;2023-09-18T06:32:28;98850.38;;;21.06;100.00
53270;BME280;39159;45.634;9.420;2023-09-18T06:34:54;98843.28;;;21.12;100.00
53270;BME280;39159;45.634;9.420;2023-09-18T06:37:19;98842.16;;;21.17;100.00
53270;BME280;39159;45.634;9.420;2023-09-18T06:39:45;98854.13;;;21.24;100.00
53270;BME280;39159;45.634;9.420;2023-09-18T06:42:10;98844.59;;;21.25;100.00
53270;BME280;39159;45.634;9.420;2023-09-18T06:44:36;98841.81;;;21.25;100.00
53270;BME280;39159;45.634;9.420;2023-09-18T06:47:02;98845.00;;;21.24;100.00
53270;BME280;39159;45.634;9.420;2023-09-18T06:49:28;98838.25;;;21.25;100.00
53270;BME280;39159;45.634;9.420;2023-09-18T06:51:53;98819.25;;;21.23;100.00
53270;BME280;39159;45.634;9.420;2023-09-18T06:54:18;98808.88;;;21.17;100.00
53270;BME280;39159;45.634;9.420;2023-09-18T06:56:44;98803.72;;;21.19;100.00
53270;BME280;39159;45.634;9.420;2023-09-18T06:59:10;98797.78;;;21.17;100.00
53270;BME280;39159;45.634;9.420;2023-09-18T07:01:36;98783.88;;;21.17;100.00
53270;BME280;39159;45.634;9.420;2023-09-18T07:04:02;98789.03;;;21.18;100.00
53270;BME280;39159;45.634;9.420;2023-09-18T07:06:29;98779.13;;;21.17;100.00
53270;BME280;39159;45.634;9.420;2023-09-18T07:08:54;98783.06;;;21.16;100.00
53270;BME280;39159;45.634;9.420;2023-09-18T07:11:20;98789.44;;;21.17;100.00
53270;BME280;39159;45.634;9.420;2023-09-18T07:13:45;98793.06;;;21.24;100.00
53270;BME280;39159;45.634;9.420;2023-09-18T07:16:11;98791.13;;;21.28;100.00
53270;BME280;39159;45.634;9.420;2023-09-18T07:18:37;98780.06;;;21.36;100.00
53270;BME280;39159;45.634;9.420;2023-09-18T07:21:03;98783.34;;;21.41;100.00
53270;BME280;39159;45.634;9.420;2023-09-18T07:23:28;98793.31;;;21.53;100.00
53270;BME280;39159;45.634;9.420;2023-09-18T07:25:54;98787.34;;;21.51;100.00
53270;BME280;39159;45.634;9.420;2023-09-18T07:28:19;98785.03;;;21.57;100.00
53270;BME280;39159;45.634;9.420;2023-09-18T07:30:45;98777.50;;;21.57;100.00
53270;BME280;39159;45.634;9.420;2023-09-18T07:33:11;98779.47;;;21.57;100.00
53270;BME280;39159;45.634;9.420;2023-09-18T07:35:37;98784.66;;;21.62;100.00
53270;BME280;39159;45.634;9.420;2023-09-18T07:38:03;98785.50;;;21.66;100.00
53270;BME280;39159;45.634;9.420;2023-09-18T07:40:29;98786.69;;;21.72;100.00
53270;BME280;39159;45.634;9.420;2023-09-18T07:42:54;98785.53;;;21.73;100.00
53270;BME280;39159;45.634;9.420;2023-09-18T07:45:19;98791.91;;;21.81;100.00
53270;BME280;39159;45.634;9.420;2023-09-18T07:47:45;98796.69;;;21.80;100.00
53270;BME280;39159;45.634;9.420;2023-09-18T07:50:10;98800.25;;;21.81;100.00
53270;BME280;39159;45.634;9.420;2023-09-18T07:52:36;98800.66;;;21.83;100.00
53270;BME280;39159;45.634;9.420;2023-09-18T07:55:01;98792.69;;;21.78;100.00
53270;BME280;39159;45.634;9.420;2023-09-18T07:57:27;98795.09;;;21.83;100.00
53270;BME280;39159;45.634;9.420;2023-09-18T07:59:58;98794.34;;;21.86;100.00
53270;BME280;39159;45.634;9.420;2023-09-18T08:02:24;98806.28;;;21.90;100.00
53270;BME280;39159;45.634;9.420;2023-09-18T08:04:50;98816.56;;;21.89;100.00
53270;BME280;39159;45.634;9.420;2023-09-18T08:07:18;98818.59;;;21.92;100.00
53270;BME280;39159;45.634;9.420;2023-09-18T08:09:44;98826.50;;;21.87;100.00
53270;BME280;39159;45.634;9.420;2023-09-18T08:12:10;98824.91;;;21.86;100.00
53270;BME280;39159;45.634;9.420;2023-09-18T08:14:36;98825.31;;;21.88;100.00
53270;BME280;39159;45.634;9.420;2023-09-18T08:17:02;98821.31;;;21.85;100.00
53270;BME280;39159;45.634;9.420;2023-09-18T08:19:29;98809.41;;;21.85;100.00
53270;BME280;39159;45.634;9.420;2023-09-18T08:21:55;98792.31;;;21.83;100.00
53270;BME280;39159;45.634;9.420;2023-09-18T08:24:22;98793.53;;;21.85;100.00
53270;BME280;39159;45.634;9.420;2023-09-18T08:26:48;98789.97;;;21.85;100.00
53270;BME280;39159;45.634;9.420;2023-09-18T08:29:13;98789.59;;;21.86;100.00
53270;BME280;39159;45.634;9.420;2023-09-18T08:31:38;98782.84;;;21.91;100.00
53270;BME280;39159;45.634;9.420;2023-09-18T08:34:04;98784.84;;;21.90;100.00
53270;BME280;39159;45.634;9.420;2023-09-18T08:36:29;98783.31;;;22.00;100.00
53270;BME280;39159;45.634;9.420;2023-09-18T08:38:56;98782.53;;;22.03;100.00
53270;BME280;39159;45.634;9.420;2023-09-18T08:41:23;98779.34;;;22.05;100.00
53270;BME280;39159;45.634;9.420;2023-09-18T08:43:53;98786.56;;;22.13;100.00
53270;BME280;39159;45.634;9.420;2023-09-18T08:46:21;98779.44;;;22.19;100.00
53270;BME280;39159;45.634;9.420;2023-09-18T08:48:48;98773.88;;;22.19;100.00
53270;BME280;39159;45.634;9.420;2023-09-18T08:51:16;98777.88;;;22.25;100.00
53270;BME280;39159;45.634;9.420;2023-09-18T08:53:43;98783.88;;;22.31;100.00
53270;BME280;39159;45.634;9.420;2023-09-18T08:56:10;98780.72;;;22.36;100.00
53270;BME280;39159;45.634;9.420;2023-09-18T08:58:38;98785.09;;;22.37;100.00
53270;BME280;39159;45.634;9.420;2023-09-18T09:01:08;98791.44;;;22.34;100.00
53270;BME280;39159;45.634;9.420;2023-09-18T09:03:44;98795.81;;;22.35;100.00
53270;BME280;39159;45.634;9.420;2023-09-18T09:06:12;98791.47;;;22.41;100.00
53270;BME280;39159;45.634;9.420;2023-09-18T09:08:38;98779.97;;;22.53;100.00
53270;BME280;39159;45.634;9.420;2023-09-18T09:11:04;98772.06;;;22.63;100.00
53270;BME280;39159;45.634;9.420;2023-09-18T09:13:30;98770.91;;;22.71;100.00
53270;BME280;39159;45.634;9.420;2023-09-18T09:15:57;98764.13;;;22.72;100.00
53270;BME280;39159;45.634;9.420;2023-09-18T09:18:24;98760.56;;;22.68;100.00
53270;BME280;39159;45.634;9.420;2023-09-18T09:21:07;98759.34;;;22.65;100.00
53270;BME280;39159;45.634;9.420;2023-09-18T09:23:49;98767.69;;;22.65;100.00
53270;BME280;39159;45.634;9.420;2023-09-18T09:26:18;98755.78;;;22.72;100.00
53270;BME280;39159;45.634;9.420;2023-09-18T09:28:45;98756.59;;;22.76;100.00
53270;BME280;39159;45.634;9.420;2023-09-18T09:31:10;98745.06;;;22.74;100.00
53270;BME280;39159;45.634;9.420;2023-09-18T09:33:37;98751.03;;;22.80;100.00
53270;BME280;39159;45.634;9.420;2023-09-18T09:36:06;98755.44;;;22.91;100.00
53270;BME280;39159;45.634;9.420;2023-09-18T09:38:33;98766.97;;;22.86;100.00
53270;BME280;39159;45.634;9.420;2023-09-18T09:41:02;98761.75;;;22.74;100.00
53270;BME280;39159;45.634;9.420;2023-09-18T09:43:32;98754.97;;;22.61;100.00
53270;BME280;39159;45.634;9.420;2023-09-18T09:45:59;98750.22;;;22.72;100.00
53270;BME280;39159;45.634;9.420;2023-09-18T09:48:25;98767.31;;;22.67;100.00
53270;BME280;39159;45.634;9.420;2023-09-18T09:50:51;98765.31;;;22.67;100.00
53270;BME280;39159;45.634;9.420;2023-09-18T09:53:17;98757.38;;;22.69;100.00
53270;BME280;39159;45.634;9.420;2023-09-18T09:55:43;98752.22;;;22.68;100.00
53270;BME280;39159;45.634;9.420;2023-09-18T09:58:10;98760.16;;;22.69;100.00
53270;BME280;39159;45.634;9.420;2023-09-18T10:00:46;98760.19;;;22.73;100.00
53270;BME280;39159;45.634;9.420;2023-09-18T10:03:16;98765.72;;;22.76;100.00
53270;BME280;39159;45.634;9.420;2023-09-18T10:05:43;98754.63;;;22.80;100.00
53270;BME280;39159;45.634;9.420;2023-09-18T10:08:25;98766.53;;;22.77;100.00
53270;BME280;39159;45.634;9.420;2023-09-18T10:10:55;98759.00;;;22.81;100.00
53270;BME280;39159;45.634;9.420;2023-09-18T10:13:32;98762.56;;;22.78;100.00
53270;BME280;39159;45.634;9.420;2023-09-18T10:15:58;98766.94;;;22.75;100.00
53270;BME280;39159;45.634;9.420;2023-09-18T10:18:45;98770.53;;;22.80;100.00
53270;BME280;39159;45.634;9.420;2023-09-18T10:21:35;98773.31;;;22.80;100.00
53270;BME280;39159;45.634;9.420;2023-09-18T10:26:59;98770.13;;;22.85;100.00
53270;BME280;39159;45.634;9.420;2023-09-18T10:29:26;98783.63;;;22.75;100.00
53270;BME280;39159;45.634;9.420;2023-09-18T10:31:53;98790.34;;;22.67;100.00
53270;BME280;39159;45.634;9.420;2023-09-18T10:34:19;98790.78;;;22.73;100.00
53270;BME280;39159;45.634;9.420;2023-09-18T10:36:47;98791.19;;;22.82;100.00
53270;BME280;39159;45.634;9.420;2023-09-18T10:39:13;98790.81;;;22.98;100.00
53270;BME280;39159;45.634;9.420;2023-09-18T10:41:48;98780.53;;;23.09;100.00
53270;BME280;39159;45.634;9.420;2023-09-18T10:44:14;98778.94;;;23.01;100.00
53270;BME280;39159;45.634;9.420;2023-09-18T10:46:42;98759.81;;;22.89;100.00
53270;BME280;39159;45.634;9.420;2023-09-18T10:49:07;98766.22;;;23.04;100.00
53270;BME280;39159;45.634;9.420;2023-09-18T10:51:33;98758.66;;;23.22;100.00
53270;BME280;39159;45.634;9.420;2023-09-18T10:53:59;98761.44;;;23.40;100.00
53270;BME280;39159;45.634;9.420;2023-09-18T10:56:25;98760.22;;;23.81;100.00
53270;BME280;39159;45.634;9.420;2023-09-18T10:59:05;98770.81;;;24.25;100.00
53270;BME280;39159;45.634;9.420;2023-09-18T11:01:31;98749.72;;;24.24;100.00
53270;BME280;39159;45.634;9.420;2023-09-18T11:03:58;98753.63;;;24.48;100.00
53270;BME280;39159;45.634;9.420;2023-09-18T11:06:25;98747.53;;;24.68;100.00
53270;BME280;39159;45.634;9.420;2023-09-18T11:08:59;98751.91;;;24.72;100.00
53270;BME280;39159;45.634;9.420;2023-09-18T11:11:27;98749.22;;;24.51;100.00
53270;BME280;39159;45.634;9.420;2023-09-18T11:13:56;98748.06;;;24.34;100.00
53270;BME280;39159;45.634;9.420;2023-09-18T11:19:16;98740.50;;;24.38;100.00
53270;BME280;39159;45.634;9.420;2023-09-18T11:21:43;98736.97;;;24.27;100.00
53270;BME280;39159;45.634;9.420;2023-09-18T11:24:20;98738.53;;;24.28;100.00
53270;BME280;39159;45.634;9.420;2023-09-18T11:26:48;98742.47;;;24.41;100.00
53270;BME280;39159;45.634;9.420;2023-09-18T11:29:16;98738.09;;;24.40;100.00
53270;BME280;39159;45.634;9.420;2023-09-18T11:31:54;98741.66;;;24.40;100.00
53270;BME280;39159;45.634;9.420;2023-09-18T11:34:24;98738.47;;;24.42;100.00
53270;BME280;39159;45.634;9.420;2023-09-18T11:36:51;98734.88;;;24.45;100.00
53270;BME280;39159;45.634;9.420;2023-09-18T11:39:39;98738.13;;;24.33;100.00
53270;BME280;39159;45.634;9.420;2023-09-18T11:42:18;98730.94;;;24.32;100.00
53270;BME280;39159;45.634;9.420;2023-09-18T11:44:44;98737.34;;;24.25;100.00
53270;BME280;39159;45.634;9.420;2023-09-18T11:47:20;98734.22;;;24.16;100.00
53270;BME280;39159;45.634;9.420;2023-09-18T11:49:57;98731.41;;;24.19;100.00
53270;BME280;39159;45.634;9.420;2023-09-18T11:52:30;98726.59;;;24.27;100.00
53270;BME280;39159;45.634;9.420;2023-09-18T11:54:58;98727.03;;;24.22;100.00
53270;BME280;39159;45.634;9.420;2023-09-18T11:57:24;98723.09;;;24.12;100.00
53270;BME280;39159;45.634;9.420;2023-09-18T11:59:50;98716.31;;;24.10;100.00
53270;BME280;39159;45.634;9.420;2023-09-18T12:02:29;98720.75;;;24.04;100.00
53270;BME280;39159;45.634;9.420;2023-09-18T12:05:09;98720.75;;;24.04;100.00
53270;BME280;39159;45.634;9.420;2023-09-18T12:07:35;98711.56;;;24.03;100.00
53270;BME280;39159;45.634;9.420;2023-09-18T12:10:00;98708.78;;;24.03;100.00
53270;BME280;39159;45.634;9.420;2023-09-18T12:12:30;98702.44;;;23.92;100.00
53270;BME280;39159;45.634;9.420;2023-09-18T12:14:56;98700.13;;;23.76;100.00
53270;BME280;39159;45.634;9.420;2023-09-18T12:17:22;98688.16;;;23.83;100.00
53270;BME280;39159;45.634;9.420;2023-09-18T12:19:56;98687.72;;;23.91;100.00
53270;BME280;39159;45.634;9.420;2023-09-18T12:22:29;98681.38;;;23.87;100.00
53270;BME280;39159;45.634;9.420;2023-09-18T12:25:12;98670.59;;;23.89;100.00
53270;BME280;39159;45.634;9.420;2023-09-18T12:27:37;98657.06;;;23.95;100.00
53270;BME280;39159;45.634;9.420;2023-09-18T12:30:04;98655.84;;;23.99;100.00
53270;BME280;39159;45.634;9.420;2023-09-18T12:32:33;98663.81;;;23.94;100.00
53270;BME280;39159;45.634;9.420;2023-09-18T12:35:01;98670.53;;;24.07;100.00
53270;BME280;39159;45.634;9.420;2023-09-18T12:37:26;98675.72;;;24.05;100.00
53270;BME280;39159;45.634;9.420;2023-09-18T12:39:52;98662.59;;;23.98;100.00
53270;BME280;39159;45.634;9.420;2023-09-18T12:42:20;98662.16;;;24.07;100.00
53270;BME280;39159;45.634;9.420;2023-09-18T12:44:49;98662.16;;;24.11;100.00
53270;BME280;39159;45.634;9.420;2023-09-18T12:47:16;98667.72;;;24.11;100.00
53270;BME280;39159;45.634;9.420;2023-09-18T12:49:41;98660.97;;;24.08;100.00
53270;BME280;39159;45.634;9.420;2023-09-18T12:52:06;98660.94;;;24.12;100.00
53270;BME280;39159;45.634;9.420;2023-09-18T12:54:41;98657.00;;;24.06;100.00
53270;BME280;39159;45.634;9.420;2023-09-18T12:57:10;98648.63;;;24.09;100.00
53270;BME280;39159;45.634;9.420;2023-09-18T12:59:36;98640.66;;;24.08;100.00
53270;BME280;39159;45.634;9.420;2023-09-18T13:02:03;98643.88;;;24.06;100.00